sensor_id;sensor_type;location;lat;lon;timestamp;P1;durP1;ratioP1;P2;durP2;ratioP2
43690;SDS011;29293;52.190;21.226;2023-08-17T00:07:33;13.00;;;11.10;;
43690;SDS011;29293;52.190;21.226;2023-08-17T00:22:40;14.60;;;11.30;;
43690;SDS011;29293;52.190;21.226;2023-08-17T00:37:47;19.20;;;12.20;;
43690;SDS011;29293;52.190;21.226;2023-08-17T00:52:55;21.90;;;12.50;;
43690;SDS011;29293;52.190;21.226;2023-08-17T01:08:02;15.90;;;13.00;;
43690;SDS011;29293;52.190;21.226;2023-08-17T01:23:10;17.80;;;13.50;;
43690;SDS011;29293;52.190;21.226;2023-08-17T01:38:17;15.20;;;13.00;;
43690;SDS011;29293;52.190;21.226;2023-08-17T01:53:27;15.70;;;13.10;;
43690;SDS011;29293;52.190;21.226;2023-08-17T02:08:36;24.40;;;14.20;;
43690;SDS011;29293;52.190;21.226;2023-08-17T02:23:42;15.20;;;13.70;;
43690;SDS011;29293;52.190;21.226;2023-08-17T02:38:49;15.60;;;13.30;;
43690;SDS011;29293;52.190;21.226;2023-08-17T02:53:57;14.80;;;13.10;;
43690;SDS011;29293;52.190;21.226;2023-08-17T03:09:04;17.80;;;13.10;;
43690;SDS011;29293;52.190;21.226;2023-08-17T03:24:10;16.20;;;12.70;;
43690;SDS011;29293;52.190;21.226;2023-08-17T03:39:17;18.20;;;12.30;;
43690;SDS011;29293;52.190;21.226;2023-08-17T03:54:24;18.30;;;13.80;;
43690;SDS011;29293;52.190;21.226;2023-08-17T04:09:31;17.00;;;13.70;;
43690;SDS011;29293;52.190;21.226;2023-08-17T04:24:38;17.00;;;13.30;;
43690;SDS011;29293;52.190;21.226;2023-08-17T04:39:45;27.60;;;13.50;;
43690;SDS011;29293;52.190;21.226;2023-08-17T05:09:59;18.00;;;13.70;;
43690;SDS011;29293;52.190;21.226;2023-08-17T05:25:07;15.50;;;12.30;;
43690;SDS011;29293;52.190;21.226;2023-08-17T05:40:14;16.00;;;12.80;;
43690;SDS011;29293;52.190;21.226;2023-08-17T05:55:21;28.20;;;12.60;;
43690;SDS011;29293;52.190;21.226;2023-08-17T06:10:28;17.40;;;11.60;;
43690;SDS011;29293;52.190;21.226;2023-08-17T06:25:35;15.80;;;10.10;;
43690;SDS011;29293;52.190;21.226;2023-08-17T06:40:44;11.80;;;9.10;;
43690;SDS011;29293;52.190;21.226;2023-08-17T06:55:51;13.50;;;9.00;;
43690;SDS011;29293;52.190;21.226;2023-08-17T07:10:58;13.70;;;9.00;;
43690;SDS011;29293;52.190;21.226;2023-08-17T07:26:05;11.40;;;8.10;;
43690;SDS011;29293;52.190;21.226;2023-08-17T07:41:12;10.50;;;7.70;;
43690;SDS011;29293;52.190;21.226;2023-08-17T07:56:19;9.60;;;7.10;;
43690;SDS011;29293;52.190;21.226;2023-08-17T08:11:26;10.60;;;8.90;;
43690;SDS011;29293;52.190;21.226;2023-08-17T08:26:34;8.60;;;7.20;;
43690;SDS011;29293;52.190;21.226;2023-08-17T08:41:41;12.30;;;8.60;;
43690;SDS011;29293;52.190;21.226;2023-08-17T08:56:55;10.40;;;7.70;;
43690;SDS011;29293;52.190;21.226;2023-08-17T09:12:10;15.10;;;8.70;;
43690;SDS011;29293;52.190;21.226;2023-08-17T09:27:18;12.30;;;7.70;;
43690;SDS011;29293;52.190;21.226;2023-08-17T09:42:25;12.00;;;8.10;;
43690;SDS011;29293;52.190;21.226;2023-08-17T09:57:32;8.00;;;7.00;;
43690;SDS011;29293;52.190;21.226;2023-08-17T10:12:41;6.40;;;5.70;;
43690;SDS011;29293;52.190;21.226;2023-08-17T10:27:55;5.50;;;3.90;;
43690;SDS011;29293;52.190;21.226;2023-08-17T10:43:08;5.00;;;3.50;;
43690;SDS011;29293;52.190;21.226;2023-08-17T10:58:17;4.60;;;3.10;;
43690;SDS011;29293;52.190;21.226;2023-08-17T11:13:25;6.00;;;2.70;;
43690;SDS011;29293;52.190;21.226;2023-08-17T11:28:36;10.90;;;3.10;;
43690;SDS011;29293;52.190;21.226;2023-08-17T11:43:44;8.00;;;3.30;;
43690;SDS011;29293;52.190;21.226;2023-08-17T11:58:52;5.80;;;2.90;;
43690;SDS011;29293;52.190;21.226;2023-08-17T12:13:59;5.70;;;3.50;;
43690;SDS011;29293;52.190;21.226;2023-08-17T12:29:13;10.90;;;3.80;;
43690;SDS011;29293;52.190;21.226;2023-08-17T12:44:20;7.50;;;4.10;;
43690;SDS011;29293;52.190;21.226;2023-08-17T12:59:27;5.20;;;3.60;;
43690;SDS011;29293;52.190;21.226;2023-08-17T13:14:34;5.70;;;3.50;;
43690;SDS011;29293;52.190;21.226;2023-08-17T13:29:40;6.60;;;3.70;;
43690;SDS011;29293;52.190;21.226;2023-08-17T13:44:47;7.10;;;3.50;;
43690;SDS011;29293;52.190;21.226;2023-08-17T13:59:54;7.70;;;3.30;;
43690;SDS011;29293;52.190;21.226;2023-08-17T14:15:01;6.70;;;3.80;;
43690;SDS011;29293;52.190;21.226;2023-08-17T14:30:08;7.80;;;3.50;;
43690;SDS011;29293;52.190;21.226;2023-08-17T14:45:15;5.30;;;3.20;;
43690;SDS011;29293;52.190;21.226;2023-08-17T15:00:22;6.50;;;3.30;;
43690;SDS011;29293;52.190;21.226;2023-08-17T15:15:29;7.60;;;3.60;;
43690;SDS011;29293;52.190;21.226;2023-08-17T15:30:36;5.10;;;3.40;;
43690;SDS011;29293;52.190;21.226;2023-08-17T15:45:43;6.00;;;3.50;;
43690;SDS011;29293;52.190;21.226;2023-08-17T16:00:50;5.40;;;3.10;;
43690;SDS011;29293;52.190;21.226;2023-08-17T16:15:56;5.30;;;2.90;;
43690;SDS011;29293;52.190;21.226;2023-08-17T16:31:03;5.00;;;3.80;;
43690;SDS011;29293;52.190;21.226;2023-08-17T16:46:12;5.40;;;3.60;;
43690;SDS011;29293;52.190;21.226;2023-08-17T17:01:23;8.10;;;3.60;;
43690;SDS011;29293;52.190;21.226;2023-08-17T17:16:39;8.80;;;4.50;;
43690;SDS011;29293;52.190;21.226;2023-08-17T17:31:46;8.60;;;3.60;;
43690;SDS011;29293;52.190;21.226;2023-08-17T17:46:53;7.70;;;4.00;;
43690;SDS011;29293;52.190;21.226;2023-08-17T18:02:00;9.00;;;4.90;;
43690;SDS011;29293;52.190;21.226;2023-08-17T18:17:06;10.50;;;4.60;;
43690;SDS011;29293;52.190;21.226;2023-08-17T18:32:13;10.30;;;4.60;;
43690;SDS011;29293;52.190;21.226;2023-08-17T18:47:20;11.40;;;5.20;;
43690;SDS011;29293;52.190;21.226;2023-08-17T19:02:27;10.80;;;5.20;;
43690;SDS011;29293;52.190;21.226;2023-08-17T19:17:34;10.90;;;5.10;;
43690;SDS011;29293;52.190;21.226;2023-08-17T19:32:41;13.30;;;6.00;;
43690;SDS011;29293;52.190;21.226;2023-08-17T19:47:47;16.60;;;6.80;;
43690;SDS011;29293;52.190;21.226;2023-08-17T20:02:54;12.70;;;5.80;;
43690;SDS011;29293;52.190;21.226;2023-08-17T20:18:01;13.20;;;6.90;;
43690;SDS011;29293;52.190;21.226;2023-08-17T20:33:08;14.10;;;7.00;;
43690;SDS011;29293;52.190;21.226;2023-08-17T20:48:15;10.50;;;6.90;;
43690;SDS011;29293;52.190;21.226;2023-08-17T21:03:22;10.30;;;7.90;;
43690;SDS011;29293;52.190;21.226;2023-08-17T21:18:29;15.50;;;9.20;;
43690;SDS011;29293;52.190;21.226;2023-08-17T21:33:36;23.50;;;9.60;;
43690;SDS011;29293;52.190;21.226;2023-08-17T21:48:58;15.40;;;9.60;;
43690;SDS011;29293;52.190;21.226;2023-08-17T22:04:04;16.00;;;8.80;;
43690;SDS011;29293;52.190;21.226;2023-08-17T22:19:11;13.10;;;8.80;;
43690;SDS011;29293;52.190;21.226;2023-08-17T22:34:18;12.20;;;8.00;;
43690;SDS011;29293;52.190;21.226;2023-08-17T22:49:24;12.70;;;8.70;;
43690;SDS011;29293;52.190;21.226;2023-08-17T23:04:31;17.50;;;9.20;;
43690;SDS011;29293;52.190;21.226;2023-08-17T23:19:38;15.90;;;9.30;;
43690;SDS011;29293;52.190;21.226;2023-08-17T23:34:45;12.90;;;9.70;;
43690;SDS011;29293;52.190;21.226;2023-08-17T23:49:51;19.20;;;10.50;;
